Time;durP1;ratioP1;P1;durP2;ratioP2;P2;SDS_P1;SDS_P2;PMS_P1;PMS_P2;Temp;Humidity;BMP_temperature;BMP_pressure;BME280_temperature;BME280_humidity;BME280_pressure;Samples;Min_cycle;Max_cycle;Signal;HPM_P1;HPM_P2
2022/05/07 00:00:44;;;;;;;9.40;5.38;;;12.30;99.90;;;;;;5051276;28;21937;-61
2022/05/07 00:03:11;;;;;;;7.50;6.20;;;12.10;99.90;;;;;;5010711;28;20232;-61
2022/05/07 00:05:40;;;;;;;9.27;5.45;;;12.20;99.90;;;;;;5038407;28;20208;-61
2022/05/07 00:08:07;;;;;;;8.82;5.55;;;12.30;99.90;;;;;;5043047;28;21042;-62
2022/05/07 00:10:34;;;;;;;7.93;5.55;;;12.30;99.90;;;;;;5037454;28;20215;-61
2022/05/07 00:13:01;;;;;;;9.73;5.40;;;12.30;99.90;;;;;;5048397;28;20192;-62
2022/05/07 00:15:28;;;;;;;7.55;5.45;;;12.20;99.90;;;;;;5038676;28;20196;-61
2022/05/07 00:18:05;;;;;;;7.80;5.70;;;12.30;99.90;;;;;;5033560;28;20996;-61
2022/05/07 00:20:33;;;;;;;9.07;5.80;;;12.30;99.90;;;;;;5036140;28;20211;-61
2022/05/07 00:23:02;;;;;;;7.65;5.47;;;12.40;99.90;;;;;;5036662;28;20231;-61
2022/05/07 00:25:31;;;;;;;13.23;6.47;;;12.40;99.90;;;;;;5046988;28;20196;-61
2022/05/07 00:27:58;;;;;;;6.75;5.13;;;12.40;99.90;;;;;;5052057;28;20228;-61
2022/05/07 00:30:25;;;;;;;6.80;5.72;;;12.30;99.90;;;;;;5029887;28;23302;-61
2022/05/07 00:32:53;;;;;;;8.65;5.78;;;12.30;99.90;;;;;;5043262;28;20213;-61
2022/05/07 00:35:20;;;;;;;6.90;5.63;;;12.30;99.90;;;;;;5016414;28;21869;-61
2022/05/07 00:37:47;;;;;;;8.55;5.93;;;12.30;99.90;;;;;;5059791;28;20204;-61
2022/05/07 00:40:15;;;;;;;5.78;5.18;;;12.30;99.90;;;;;;5042849;28;20815;-62
2022/05/07 00:42:42;;;;;;;7.68;5.90;;;12.30;99.90;;;;;;5033790;28;20232;-61
2022/05/07 00:45:09;;;;;;;6.55;4.97;;;12.30;99.90;;;;;;5045876;28;20218;-61
2022/05/07 00:47:38;;;;;;;8.02;5.88;;;12.10;99.90;;;;;;5038098;28;20196;-61
2022/05/07 00:52:52;;;;;;;7.10;5.25;;;12.10;99.90;;;;;;5052814;28;20269;-61
2022/05/07 00:55:20;;;;;;;8.10;6.72;;;12.10;99.90;;;;;;5053771;28;21171;-61
2022/05/07 00:57:47;;;;;;;9.07;5.35;;;12.00;99.90;;;;;;5036278;28;20209;-61
2022/05/07 01:00:14;;;;;;;6.40;5.10;;;11.90;99.90;;;;;;5049055;28;21092;-61
2022/05/07 01:02:41;;;;;;;9.52;4.65;;;11.70;99.90;;;;;;5037844;28;20222;-61
2022/05/07 01:05:10;;;;;;;6.00;4.95;;;11.50;99.90;;;;;;5040705;28;20203;-61
2022/05/07 01:07:37;;;;;;;6.03;4.90;;;11.50;99.90;;;;;;5039789;28;20477;-61
2022/05/07 01:10:06;;;;;;;10.52;5.00;;;11.50;99.90;;;;;;5049432;28;20197;-61
2022/05/07 01:12:35;;;;;;;10.35;5.13;;;11.50;99.90;;;;;;5051092;28;20237;-61
2022/05/07 01:15:02;;;;;;;7.07;4.97;;;11.50;99.90;;;;;;5036120;28;20279;-61
2022/05/07 01:17:32;;;;;;;5.75;5.13;;;11.60;99.90;;;;;;5037641;28;20288;-61
2022/05/07 01:19:59;;;;;;;6.60;5.55;;;11.60;99.90;;;;;;5045588;28;20201;-61
2022/05/07 01:22:30;;;;;;;6.88;5.18;;;11.70;99.90;;;;;;5025614;28;20225;-61
2022/05/07 01:24:56;;;;;;;10.13;5.35;;;11.70;99.90;;;;;;5050074;28;20222;-61
2022/05/07 01:27:24;;;;;;;6.35;5.18;;;11.70;99.90;;;;;;5036783;28;20723;-61
2022/05/07 01:29:51;;;;;;;6.78;5.55;;;11.60;99.90;;;;;;5055208;28;20199;-61
2022/05/07 01:32:18;;;;;;;8.40;4.93;;;11.60;99.90;;;;;;5039064;28;20224;-61
2022/05/07 01:34:44;;;;;;;8.02;5.80;;;11.70;99.90;;;;;;5041281;28;20709;-61
2022/05/07 01:37:11;;;;;;;8.50;6.13;;;11.70;99.90;;;;;;5032361;28;20581;-61
2022/05/07 01:39:39;;;;;;;9.45;5.90;;;11.70;99.90;;;;;;5055612;28;20206;-61
2022/05/07 01:42:06;;;;;;;9.38;6.20;;;11.70;99.90;;;;;;5038173;28;20223;-60
2022/05/07 01:44:34;;;;;;;8.32;5.63;;;11.70;99.90;;;;;;5049089;28;20203;-61
2022/05/07 01:49:45;;;;;;;8.00;5.70;;;11.80;99.90;;;;;;5044280;28;20216;-62
2022/05/07 01:52:12;;;;;;;7.18;5.47;;;11.90;99.90;;;;;;5035451;28;20235;-61
2022/05/07 01:54:40;;;;;;;8.13;5.72;;;11.90;99.90;;;;;;5051322;28;20193;-61
2022/05/07 01:57:08;;;;;;;9.25;5.70;;;11.90;99.90;;;;;;5064727;28;20208;-61
2022/05/07 01:59:35;;;;;;;5.85;5.25;;;11.90;99.90;;;;;;5074530;27;20438;-60
2022/05/07 02:02:02;;;;;;;6.35;5.55;;;11.90;99.90;;;;;;5082517;28;20197;-61
2022/05/07 02:04:29;;;;;;;6.55;5.07;;;11.80;99.90;;;;;;5043967;28;20296;-60
2022/05/07 02:06:56;;;;;;;8.55;5.55;;;11.80;99.90;;;;;;5036463;28;20204;-61
2022/05/07 02:09:23;;;;;;;7.78;6.25;;;11.80;99.90;;;;;;5041076;28;20251;-61
2022/05/07 02:11:51;;;;;;;8.35;5.80;;;11.80;99.90;;;;;;5039712;28;20907;-61
2022/05/07 02:14:18;;;;;;;6.50;5.80;;;11.80;99.90;;;;;;5044152;28;20210;-61
2022/05/07 02:16:45;;;;;;;10.02;5.85;;;11.90;99.90;;;;;;5036191;28;20272;-61
2022/05/07 02:19:12;;;;;;;7.60;6.40;;;11.90;99.90;;;;;;5046721;28;20200;-61
2022/05/07 02:21:39;;;;;;;7.53;6.30;;;12.00;99.90;;;;;;5033738;28;20219;-61
2022/05/07 02:24:07;;;;;;;8.30;6.30;;;12.00;99.90;;;;;;5033680;28;20223;-61
2022/05/07 02:26:33;;;;;;;7.45;5.65;;;12.00;99.90;;;;;;5054145;28;20946;-61
2022/05/07 02:29:02;;;;;;;10.80;5.82;;;12.00;99.90;;;;;;5041931;28;20889;-61
2022/05/07 02:31:29;;;;;;;7.10;5.80;;;11.90;99.90;;;;;;5055101;28;20300;-61
2022/05/07 02:33:56;;;;;;;9.27;5.88;;;11.80;99.90;;;;;;5052470;28;20207;-61
2022/05/07 02:36:23;;;;;;;9.90;5.90;;;11.90;99.90;;;;;;5020399;28;20210;-61
2022/05/07 02:38:49;;;;;;;6.38;5.70;;;11.90;99.90;;;;;;5036444;28;20213;-61
2022/05/07 02:44:04;;;;;;;9.15;5.80;;;11.90;99.90;;;;;;5041421;28;20239;-61
2022/05/07 02:46:31;;;;;;;9.07;5.97;;;12.00;99.90;;;;;;5045321;28;20250;-61
2022/05/07 02:48:58;;;;;;;6.88;5.57;;;11.90;99.90;;;;;;5047052;28;20200;-61
2022/05/07 02:51:25;;;;;;;6.85;5.68;;;11.80;99.90;;;;;;5022026;28;20317;-61
2022/05/07 02:53:52;;;;;;;10.45;6.13;;;11.80;99.90;;;;;;5026280;28;20220;-62
2022/05/07 02:56:19;;;;;;;9.45;6.55;;;11.80;99.90;;;;;;5044208;28;20203;-61
2022/05/07 02:58:46;;;;;;;10.27;6.68;;;11.80;99.90;;;;;;5051534;28;20209;-61
2022/05/07 03:01:15;;;;;;;8.77;6.18;;;11.80;99.90;;;;;;5037690;28;20210;-61
2022/05/07 03:03:42;;;;;;;12.02;6.45;;;11.80;99.90;;;;;;5055354;28;20689;-61
2022/05/07 03:06:09;;;;;;;12.27;6.28;;;11.70;99.90;;;;;;5031084;28;20354;-61
2022/05/07 03:08:35;;;;;;;8.13;6.13;;;11.80;99.90;;;;;;5037860;28;20573;-61
2022/05/07 03:11:03;;;;;;;7.95;6.15;;;11.80;99.90;;;;;;5036414;28;20213;-62
2022/05/07 03:13:29;;;;;;;9.05;6.30;;;11.80;99.90;;;;;;5027237;28;20204;-61
2022/05/07 03:15:56;;;;;;;12.25;6.10;;;11.80;99.90;;;;;;5058156;28;20191;-61
2022/05/07 03:18:25;;;;;;;7.43;6.07;;;11.80;99.90;;;;;;5047341;28;20841;-61
2022/05/07 03:20:52;;;;;;;10.10;6.75;;;11.70;99.90;;;;;;5034939;28;20589;-61
2022/05/07 03:23:19;;;;;;;14.32;6.72;;;11.70;99.90;;;;;;5051875;28;20220;-61
2022/05/07 03:25:46;;;;;;;8.13;6.75;;;11.70;99.90;;;;;;5034175;28;20373;-61
2022/05/07 03:28:14;;;;;;;8.88;6.35;;;11.70;99.90;;;;;;5058097;28;21000;-61
2022/05/07 03:30:41;;;;;;;12.23;6.82;;;11.60;99.90;;;;;;5041444;28;20204;-61
2022/05/07 03:33:07;;;;;;;8.98;6.32;;;11.60;99.90;;;;;;5053364;28;20428;-61
2022/05/07 03:35:36;;;;;;;9.88;7.18;;;11.60;99.90;;;;;;5045940;28;20430;-61
2022/05/07 03:38:03;;;;;;;10.20;6.35;;;11.50;99.90;;;;;;5032759;28;20196;-61
2022/05/07 03:40:32;;;;;;;7.32;6.55;;;11.60;99.90;;;;;;5037540;28;20200;-61
2022/05/07 03:42:59;;;;;;;10.55;6.60;;;11.60;99.90;;;;;;5030482;28;22930;-61
2022/05/07 03:45:27;;;;;;;8.45;7.18;;;11.70;99.90;;;;;;5052910;28;20217;-61
2022/05/07 03:47:54;;;;;;;8.55;6.95;;;11.60;99.90;;;;;;5041533;28;20218;-61
2022/05/07 03:50:21;;;;;;;11.20;7.30;;;11.70;99.90;;;;;;5051821;28;20204;-61
2022/05/07 03:55:41;;;;;;;7.80;6.70;;;11.70;99.90;;;;;;5021626;28;20211;-61
2022/05/07 03:58:10;;;;;;;10.55;7.45;;;11.70;99.90;;;;;;5053587;28;20290;-61
2022/05/07 04:00:38;;;;;;;13.10;7.22;;;11.70;99.90;;;;;;5054234;28;20208;-61
2022/05/07 04:03:05;;;;;;;9.48;7.63;;;11.70;99.90;;;;;;5037777;28;20315;-61
2022/05/07 04:05:32;;;;;;;10.02;7.00;;;11.70;99.90;;;;;;5042616;28;21460;-61
2022/05/07 04:08:00;;;;;;;7.50;6.10;;;11.70;99.90;;;;;;5027464;28;20249;-61
2022/05/07 04:10:28;;;;;;;6.38;5.30;;;11.70;99.90;;;;;;5030829;28;20554;-61
2022/05/07 04:12:55;;;;;;;7.40;5.47;;;11.60;99.90;;;;;;5053060;28;20204;-62
2022/05/07 04:15:22;;;;;;;9.00;5.90;;;11.50;99.90;;;;;;5034388;28;20751;-61
2022/05/07 04:17:50;;;;;;;8.10;5.60;;;11.50;99.90;;;;;;5058075;28;20203;-61
2022/05/07 04:20:17;;;;;;;10.10;6.05;;;11.50;99.90;;;;;;5052486;28;20208;-61
2022/05/07 04:22:44;;;;;;;8.52;5.95;;;11.40;99.90;;;;;;5038625;28;20209;-61
2022/05/07 04:25:13;;;;;;;9.27;6.13;;;11.50;99.90;;;;;;5043452;28;20225;-60
2022/05/07 04:27:40;;;;;;;7.80;6.00;;;11.60;99.90;;;;;;5032414;28;20213;-61
2022/05/07 04:30:09;;;;;;;6.93;5.43;;;11.70;99.90;;;;;;5040494;28;20208;-61
2022/05/07 04:32:36;;;;;;;7.70;6.50;;;11.60;99.90;;;;;;5041687;28;20213;-61
2022/05/07 04:35:03;;;;;;;6.07;5.45;;;11.60;99.90;;;;;;5051170;28;20299;-60
2022/05/07 04:37:30;;;;;;;8.25;5.93;;;11.70;99.90;;;;;;5020054;28;20289;-61
2022/05/07 04:39:56;;;;;;;11.15;6.95;;;11.70;99.90;;;;;;5043445;28;20686;-61
2022/05/07 04:42:25;;;;;;;11.63;6.97;;;11.60;99.90;;;;;;5030479;28;20205;-61
2022/05/07 04:44:52;;;;;;;8.18;6.82;;;11.60;99.90;;;;;;5036859;28;20224;-61
2022/05/07 04:47:19;;;;;;;9.43;6.65;;;11.60;99.90;;;;;;5048541;28;20223;-61
2022/05/07 04:49:46;;;;;;;9.35;6.63;;;11.60;99.90;;;;;;5041828;28;20208;-61
2022/05/07 04:52:13;;;;;;;10.10;6.97;;;11.60;99.90;;;;;;5025275;28;20231;-61
2022/05/07 04:54:41;;;;;;;8.77;7.05;;;11.60;99.90;;;;;;5047581;28;21433;-61
2022/05/07 04:57:08;;;;;;;8.75;6.72;;;11.70;99.90;;;;;;5029882;28;20213;-61
2022/05/07 04:59:36;;;;;;;9.75;7.35;;;11.70;99.90;;;;;;5038677;28;20591;-61
2022/05/07 05:02:04;;;;;;;12.27;7.40;;;11.70;99.90;;;;;;5038327;28;20207;-61
2022/05/07 05:04:31;;;;;;;8.23;7.22;;;11.80;99.90;;;;;;5041755;28;20216;-61
2022/05/07 05:06:58;;;;;;;11.75;7.40;;;11.80;99.90;;;;;;5025217;28;20215;-61
2022/05/07 05:09:25;;;;;;;14.95;8.75;;;11.80;99.90;;;;;;5036613;28;20203;-61
2022/05/07 05:11:52;;;;;;;11.77;9.27;;;11.90;99.90;;;;;;5033722;28;20243;-61
2022/05/07 05:17:05;;;;;;;14.20;10.15;;;11.90;99.90;;;;;;5051079;28;20245;-61
2022/05/07 05:19:31;;;;;;;18.13;10.40;;;12.00;99.90;;;;;;5033276;28;20443;-61
2022/05/07 05:21:58;;;;;;;16.55;11.82;;;12.10;99.90;;;;;;5036865;28;20295;-61
2022/05/07 05:24:25;;;;;;;16.23;12.27;;;12.10;99.90;;;;;;5029110;28;20259;-61
2022/05/07 05:26:52;;;;;;;18.17;12.80;;;12.30;99.90;;;;;;5050561;28;20200;-61
2022/05/07 05:29:19;;;;;;;20.88;13.35;;;12.40;99.90;;;;;;5014334;28;20970;-61
2022/05/07 05:31:46;;;;;;;19.50;14.48;;;12.50;99.90;;;;;;5054209;28;20820;-61
2022/05/07 05:34:14;;;;;;;20.17;14.00;;;12.60;99.90;;;;;;5037984;28;20637;-61
2022/05/07 05:36:41;;;;;;;19.58;13.32;;;12.70;99.90;;;;;;5052718;28;20200;-61
2022/05/07 05:39:09;;;;;;;21.90;14.32;;;12.80;99.90;;;;;;5028415;28;20231;-62
2022/05/07 05:41:39;;;;;;;23.10;14.77;;;12.90;99.90;;;;;;5033978;28;20209;-61
2022/05/07 05:44:06;;;;;;;22.02;15.73;;;13.00;99.90;;;;;;5019904;28;20231;-61
2022/05/07 05:46:33;;;;;;;26.88;17.38;;;13.10;99.90;;;;;;5033151;28;20201;-61
2022/05/07 05:49:00;;;;;;;27.48;18.30;;;13.20;99.90;;;;;;5043721;28;20243;-61
2022/05/07 05:51:28;;;;;;;30.05;19.92;;;13.30;99.90;;;;;;5040429;28;20320;-62
2022/05/07 05:53:56;;;;;;;25.80;17.65;;;13.30;99.90;;;;;;5044129;28;20215;-62
2022/05/07 05:56:22;;;;;;;27.23;18.95;;;13.30;99.90;;;;;;5011726;28;20278;-62
2022/05/07 05:58:49;;;;;;;26.17;18.50;;;13.40;99.90;;;;;;5060692;28;20204;-63
2022/05/07 06:01:17;;;;;;;27.20;18.73;;;13.40;99.90;;;;;;5015523;28;24990;-63
2022/05/07 06:03:44;;;;;;;26.23;18.25;;;13.50;99.90;;;;;;5033418;28;20224;-63
2022/05/07 06:06:11;;;;;;;26.27;18.58;;;13.60;99.90;;;;;;5017163;28;20197;-63
2022/05/07 06:08:42;;;;;;;25.45;18.60;;;13.60;99.90;;;;;;5038253;28;20223;-63
2022/05/07 06:11:10;;;;;;;29.08;20.08;;;13.70;99.90;;;;;;5035641;28;20723;-62
2022/05/07 06:13:37;;;;;;;22.75;17.10;;;13.70;99.90;;;;;;5029002;28;20219;-60
2022/05/07 06:16:05;;;;;;;23.65;17.02;;;13.70;99.90;;;;;;5030181;28;20442;-60
2022/05/07 06:18:32;;;;;;;26.38;17.35;;;13.60;99.90;;;;;;5034149;28;20215;-60
2022/05/07 06:21:01;;;;;;;28.42;17.83;;;13.70;99.90;;;;;;5045552;28;20206;-60
2022/05/07 06:23:29;;;;;;;25.70;17.60;;;13.70;99.90;;;;;;5031401;28;20281;-60
2022/05/07 06:28:42;;;;;;;25.15;18.63;;;13.80;99.90;;;;;;5050569;28;20238;-61
2022/05/07 06:31:10;;;;;;;26.02;17.90;;;13.80;99.90;;;;;;5020692;28;20204;-62
2022/05/07 06:33:39;;;;;;;31.20;18.83;;;13.80;99.90;;;;;;5044020;28;20208;-61
2022/05/07 06:36:07;;;;;;;26.58;18.40;;;13.90;99.90;;;;;;5036820;28;20239;-61
2022/05/07 06:38:35;;;;;;;31.20;22.35;;;14.00;99.90;;;;;;5033002;28;20207;-61
2022/05/07 06:41:05;;;;;;;30.55;22.13;;;14.10;99.90;;;;;;5032535;28;20688;-61
2022/05/07 06:43:34;;;;;;;40.58;24.83;;;14.10;99.90;;;;;;5049564;28;20579;-60
2022/05/07 06:46:01;;;;;;;47.03;29.10;;;14.10;99.90;;;;;;5033782;28;20247;-61
2022/05/07 06:48:29;;;;;;;72.30;46.03;;;14.30;99.90;;;;;;5052463;28;20216;-61
2022/05/07 06:50:57;;;;;;;121.53;86.25;;;14.30;99.90;;;;;;5029881;28;20204;-61
2022/05/07 06:53:24;;;;;;;126.95;90.28;;;14.50;99.90;;;;;;5044581;28;20205;-61
2022/05/07 06:55:58;;;;;;;103.22;75.80;;;14.50;99.90;;;;;;5039446;28;20201;-61
2022/05/07 06:58:29;;;;;;;87.18;53.75;;;14.60;99.90;;;;;;5042517;28;20212;-61
2022/05/07 07:00:56;;;;;;;60.38;39.53;;;14.60;99.90;;;;;;5052981;28;20308;-62
2022/05/07 07:03:24;;;;;;;49.85;29.70;;;14.50;99.90;;;;;;5027139;28;20253;-61
2022/05/07 07:05:52;;;;;;;38.28;24.17;;;14.50;99.90;;;;;;5042043;28;20595;-62
2022/05/07 07:08:20;;;;;;;41.38;24.90;;;14.50;99.90;;;;;;5058356;28;20315;-61
2022/05/07 07:10:47;;;;;;;37.63;24.77;;;14.50;99.90;;;;;;5025858;28;20236;-60
2022/05/07 07:13:16;;;;;;;44.05;27.33;;;14.60;99.90;;;;;;5029793;28;20232;-62
2022/05/07 07:15:44;;;;;;;36.45;23.38;;;14.60;99.90;;;;;;5024935;28;20457;-63
2022/05/07 07:18:11;;;;;;;35.50;22.77;;;14.60;99.90;;;;;;5037040;28;20207;-65
2022/05/07 07:20:40;;;;;;;32.90;21.90;;;14.60;99.90;;;;;;5039518;28;21223;-61
2022/05/07 07:23:11;;;;;;;35.65;23.52;;;14.70;99.90;;;;;;5045657;28;20225;-61
2022/05/07 07:25:40;;;;;;;40.30;24.00;;;14.70;99.90;;;;;;5061982;28;20232;-61
2022/05/07 07:28:08;;;;;;;34.78;21.58;;;14.80;99.90;;;;;;5048008;28;20205;-61
2022/05/07 07:30:35;;;;;;;35.00;21.00;;;14.80;99.90;;;;;;5050129;28;20574;-62
2022/05/07 07:33:05;;;;;;;34.20;21.60;;;14.80;99.90;;;;;;5048261;28;20213;-61
2022/05/07 07:35:33;;;;;;;30.05;20.92;;;14.70;99.90;;;;;;5042333;28;20212;-61
2022/05/07 07:38:00;;;;;;;37.35;23.70;;;14.70;99.90;;;;;;5029922;28;20302;-61
2022/05/07 07:40:29;;;;;;;35.22;21.48;;;14.70;99.90;;;;;;5050869;28;20307;-61
2022/05/07 07:42:55;;;;;;;36.08;22.92;;;14.80;99.90;;;;;;5037111;28;20216;-62
2022/05/07 07:48:13;;;;;;;37.55;24.13;;;14.90;99.90;;;;;;4986362;28;20616;-62
2022/05/07 07:50:44;;;;;;;42.95;25.33;;;14.90;99.90;;;;;;5064245;28;20772;-61
2022/05/07 07:53:13;;;;;;;26.45;17.48;;;15.00;99.90;;;;;;5038183;28;20325;-62
2022/05/07 07:55:41;;;;;;;29.75;17.70;;;15.00;99.90;;;;;;5036443;28;20224;-61
2022/05/07 07:58:10;;;;;;;27.00;17.90;;;15.00;99.90;;;;;;5011743;28;20228;-62
2022/05/07 08:00:38;;;;;;;30.77;18.45;;;15.10;99.90;;;;;;5010024;28;20541;-61
2022/05/07 08:03:10;;;;;;;31.08;19.92;;;15.10;99.90;;;;;;5017120;28;20204;-61
2022/05/07 08:05:39;;;;;;;24.02;15.40;;;15.20;99.90;;;;;;5043266;28;20228;-61
2022/05/07 08:13:43;;;;;;;32.40;20.88;;;15.50;99.90;;;;;;5035208;28;20358;-61
2022/05/07 08:16:11;;;;;;;34.13;20.83;;;15.60;99.90;;;;;;5046892;28;20200;-62
2022/05/07 08:18:41;;;;;;;29.67;18.60;;;15.60;99.90;;;;;;5015450;28;20208;-61
2022/05/07 08:21:10;;;;;;;30.88;17.83;;;15.60;99.90;;;;;;5036784;28;20216;-62
2022/05/07 08:23:38;;;;;;;24.52;13.73;;;15.60;99.90;;;;;;5027763;28;20600;-61
2022/05/07 08:26:06;;;;;;;27.10;14.90;;;15.70;99.90;;;;;;5028015;28;20266;-62
2022/05/07 08:28:33;;;;;;;21.73;15.77;;;15.70;99.90;;;;;;5020478;28;20205;-61
2022/05/07 08:31:03;;;;;;;28.90;18.42;;;15.70;99.90;;;;;;5034080;28;20217;-61
2022/05/07 08:33:31;;;;;;;29.13;17.50;;;15.80;99.90;;;;;;5055154;28;20319;-61
2022/05/07 08:35:58;;;;;;;31.90;19.70;;;15.80;99.90;;;;;;5044552;28;21039;-62
2022/05/07 08:38:26;;;;;;;30.40;19.77;;;15.90;99.90;;;;;;5043998;28;20200;-68
2022/05/07 08:40:54;;;;;;;32.53;20.63;;;15.80;99.90;;;;;;5037134;28;20231;-61
2022/05/07 08:43:21;;;;;;;27.60;18.90;;;15.80;99.90;;;;;;5028727;28;23829;-61
2022/05/07 08:45:48;;;;;;;28.08;18.08;;;15.80;99.90;;;;;;5013260;28;21029;-61
2022/05/07 08:48:15;;;;;;;28.73;16.45;;;15.80;99.90;;;;;;5038661;28;20563;-61
2022/05/07 08:50:44;;;;;;;21.77;14.55;;;15.80;99.90;;;;;;5023616;28;20231;-61
2022/05/07 08:53:11;;;;;;;22.52;13.45;;;15.80;99.90;;;;;;5034814;28;20200;-61
2022/05/07 08:55:40;;;;;;;17.13;10.23;;;15.80;99.90;;;;;;5029279;28;20240;-61
2022/05/07 08:58:07;;;;;;;17.80;9.50;;;15.80;99.90;;;;;;5035852;28;20225;-61
2022/05/07 09:00:34;;;;;;;16.27;9.35;;;15.90;99.90;;;;;;5037441;28;20221;-60
2022/05/07 09:03:02;;;;;;;17.25;10.45;;;16.00;99.90;;;;;;5027126;28;20311;-61
2022/05/07 09:05:35;;;;;;;12.63;9.57;;;15.90;99.90;;;;;;5031697;28;20710;-61
2022/05/07 09:08:04;;;;;;;17.33;9.88;;;16.00;99.90;;;;;;5022945;28;21146;-61
2022/05/07 09:10:34;;;;;;;14.23;8.38;;;16.00;99.90;;;;;;5012136;28;20216;-61
2022/05/07 09:13:11;;;;;;;13.40;7.70;;;16.00;99.90;;;;;;5014397;28;20203;-61
2022/05/07 09:15:49;;;;;;;9.45;6.45;;;15.90;99.90;;;;;;5074608;28;20200;-61
2022/05/07 09:18:18;;;;;;;10.02;5.97;;;15.90;99.90;;;;;;5038339;28;20226;-61
2022/05/07 09:20:45;;;;;;;11.00;6.32;;;16.00;99.90;;;;;;5038963;28;20721;-61
2022/05/07 09:23:13;;;;;;;9.02;5.35;;;16.10;99.90;;;;;;5031557;28;20228;-62
2022/05/07 09:25:48;;;;;;;8.98;5.50;;;16.10;99.90;;;;;;5041237;28;21892;-61
2022/05/07 09:28:26;;;;;;;13.48;3.85;;;16.30;99.90;;;;;;5037364;28;20319;-61
2022/05/07 09:30:56;;;;;;;10.73;3.35;;;16.30;99.90;;;;;;5029818;28;20231;-61
2022/05/07 09:33:33;;;;;;;8.65;4.15;;;16.30;99.90;;;;;;5035968;28;20211;-61
2022/05/07 09:36:10;;;;;;;8.90;3.95;;;16.30;99.90;;;;;;5044354;28;20231;-61
2022/05/07 09:38:39;;;;;;;9.45;5.18;;;16.20;99.90;;;;;;5030558;28;20322;-61
2022/05/07 09:41:06;;;;;;;6.18;3.33;;;16.40;99.90;;;;;;5039380;28;20228;-61
2022/05/07 09:43:35;;;;;;;4.88;2.50;;;16.40;99.90;;;;;;5038260;28;20228;-61
2022/05/07 09:46:02;;;;;;;3.78;2.00;;;16.30;99.90;;;;;;5042291;28;20220;-61
2022/05/07 09:48:31;;;;;;;9.93;3.50;;;16.30;99.90;;;;;;5030681;28;20209;-63
2022/05/07 09:50:59;;;;;;;5.82;2.40;;;16.40;99.90;;;;;;5049137;28;20227;-61
2022/05/07 09:58:56;;;;;;;2.97;1.50;;;16.80;99.90;;;;;;5041309;28;20216;-61
2022/05/07 10:01:46;;;;;;;2.40;1.70;;;16.90;99.90;;;;;;5046788;28;20201;-61
2022/05/07 10:04:42;;;;;;;3.28;1.85;;;16.80;99.90;;;;;;5046173;28;20225;-60
2022/05/07 10:07:24;;;;;;;3.95;2.35;;;16.90;99.90;;;;;;5052146;28;20751;-61
2022/05/07 10:10:05;;;;;;;5.00;2.65;;;16.80;99.90;;;;;;5080456;28;20191;-60
2022/05/07 10:12:32;;;;;;;7.13;3.10;;;17.00;99.90;;;;;;5032783;28;20208;-61
2022/05/07 10:15:12;;;;;;;5.70;2.75;;;16.90;99.90;;;;;;5046257;28;20207;-60
2022/05/07 10:17:40;;;;;;;4.57;3.05;;;16.90;99.90;;;;;;5036353;28;20238;-60
2022/05/07 10:20:10;;;;;;;2.70;1.83;;;17.00;99.90;;;;;;5026738;28;20220;-61
2022/05/07 10:22:38;;;;;;;3.80;2.30;;;17.10;99.90;;;;;;5027777;28;20303;-61
2022/05/07 10:25:07;;;;;;;6.97;3.13;;;17.10;99.90;;;;;;5045264;28;20315;-62
2022/05/07 10:27:35;;;;;;;5.85;3.05;;;17.10;99.90;;;;;;5020972;28;20587;-61
2022/05/07 10:30:09;;;;;;;3.20;2.08;;;17.00;99.90;;;;;;5049505;28;20196;-62
2022/05/07 10:32:47;;;;;;;3.63;2.00;;;17.00;99.90;;;;;;5030373;28;20220;-61
2022/05/07 10:35:16;;;;;;;2.08;1.58;;;17.00;99.90;;;;;;5032513;28;20811;-61
2022/05/07 10:37:43;;;;;;;4.00;1.88;;;17.10;99.90;;;;;;5048247;28;20197;-61
2022/05/07 10:40:14;;;;;;;4.60;2.25;;;17.30;99.90;;;;;;5035771;28;20213;-61
2022/05/07 10:42:41;;;;;;;5.85;2.90;;;17.30;99.90;;;;;;5049225;28;20224;-62
2022/05/07 10:45:21;;;;;;;7.03;2.53;;;17.40;99.90;;;;;;5055012;28;20238;-61
2022/05/07 10:47:54;;;;;;;3.83;2.70;;;17.30;99.90;;;;;;5053506;28;20266;-62
2022/05/07 10:50:23;;;;;;;3.30;2.67;;;17.20;99.90;;;;;;5031015;28;20216;-61
2022/05/07 10:52:55;;;;;;;6.45;3.53;;;17.20;99.90;;;;;;5062453;28;20218;-61
2022/05/07 10:55:26;;;;;;;5.55;3.95;;;17.20;99.90;;;;;;5011911;28;20208;-61
2022/05/07 10:57:56;;;;;;;7.70;4.78;;;17.50;99.90;;;;;;5040859;28;20208;-61
2022/05/07 11:00:27;;;;;;;5.10;4.13;;;17.40;99.90;;;;;;5051168;28;20802;-61
2022/05/07 11:02:58;;;;;;;11.23;6.63;;;17.40;99.90;;;;;;5037172;28;20204;-61
2022/05/07 11:05:35;;;;;;;9.82;5.75;;;17.50;99.90;;;;;;5043802;28;20789;-61
2022/05/07 11:08:03;;;;;;;10.77;5.80;;;17.50;99.90;;;;;;5038574;28;20224;-61
2022/05/07 11:10:32;;;;;;;8.40;5.22;;;17.40;99.90;;;;;;5031427;28;20219;-61
2022/05/07 11:13:05;;;;;;;9.45;5.47;;;17.40;99.90;;;;;;5053122;28;20224;-62
2022/05/07 11:15:34;;;;;;;12.00;5.30;;;17.40;99.90;;;;;;5033709;28;20200;-61
2022/05/07 11:18:01;;;;;;;8.00;5.93;;;17.40;99.90;;;;;;5035750;28;20204;-61
2022/05/07 11:20:32;;;;;;;10.98;5.68;;;17.50;99.90;;;;;;5043047;28;21039;-61
2022/05/07 11:23:00;;;;;;;9.23;6.18;;;17.50;99.90;;;;;;5024870;28;20200;-61
2022/05/07 11:25:27;;;;;;;7.95;5.28;;;17.40;99.90;;;;;;5032968;28;26842;-61
2022/05/07 11:27:55;;;;;;;8.93;5.60;;;17.50;99.90;;;;;;5054928;28;20249;-61
2022/05/07 11:30:23;;;;;;;9.52;4.82;;;17.50;99.90;;;;;;5027418;28;20200;-61
2022/05/07 11:32:53;;;;;;;8.35;5.35;;;17.60;99.90;;;;;;5049288;28;20200;-61
2022/05/07 11:35:25;;;;;;;7.72;4.65;;;17.70;99.90;;;;;;5038007;28;20208;-61
2022/05/07 11:37:52;;;;;;;13.05;5.13;;;17.80;99.90;;;;;;5042014;28;20215;-61
2022/05/07 11:40:28;;;;;;;7.60;4.95;;;17.70;99.90;;;;;;5059329;28;20197;-61
2022/05/07 11:45:25;;;;;;;8.45;4.95;;;17.80;99.90;;;;;;5029031;28;20231;-61
2022/05/07 11:45:42;;;;;;;6.03;3.85;;;17.70;99.90;;;;;;5039830;28;20289;-61
2022/05/07 11:48:17;;;;;;;8.45;4.50;;;17.90;99.90;;;;;;5033579;28;20337;-61
2022/05/07 11:50:52;;;;;;;5.50;4.10;;;18.00;99.90;;;;;;5042245;28;20281;-61
2022/05/07 11:53:20;;;;;;;8.75;4.65;;;18.00;99.90;;;;;;5034775;28;20223;-61
2022/05/07 11:55:49;;;;;;;6.95;4.18;;;18.20;99.90;;;;;;5026001;28;20224;-61
2022/05/07 11:58:17;;;;;;;6.97;4.10;;;18.10;99.90;;;;;;5012907;28;20235;-61
2022/05/07 12:00:45;;;;;;;5.20;3.38;;;18.00;99.90;;;;;;5029562;28;20926;-61
2022/05/07 12:03:17;;;;;;;5.95;4.53;;;17.80;99.90;;;;;;5025063;28;20205;-60
2022/05/07 12:05:47;;;;;;;13.48;4.60;;;17.70;99.90;;;;;;5025034;28;20231;-61
2022/05/07 12:08:15;;;;;;;7.95;5.20;;;17.60;99.90;;;;;;5039528;28;20215;-61
2022/05/07 12:10:42;;;;;;;13.25;7.93;;;17.40;99.90;;;;;;5052289;28;20200;-61
2022/05/07 12:13:09;;;;;;;9.32;6.95;;;17.40;99.90;;;;;;5036438;28;20213;-61
2022/05/07 12:18:24;;;;;;;10.68;6.60;;;17.00;99.90;;;;;;5022682;28;20204;-62
2022/05/07 12:20:51;;;;;;;9.02;5.65;;;17.00;99.90;;;;;;5054956;28;20215;-61
2022/05/07 12:31:32;;;;;;;7.55;5.28;;;16.80;99.90;;;;;;5033002;28;20236;-61
2022/05/07 12:34:00;;;;;;;8.32;4.80;;;16.70;99.90;;;;;;5035794;28;20224;-61
2022/05/07 12:36:29;;;;;;;9.77;5.80;;;16.70;99.90;;;;;;5029430;28;20887;-61
2022/05/07 12:38:59;;;;;;;10.27;6.65;;;16.70;99.90;;;;;;5031074;28;20701;-61
2022/05/07 12:41:26;;;;;;;10.70;4.43;;;16.70;99.90;;;;;;5052190;28;20300;-61
2022/05/07 12:43:54;;;;;;;9.00;5.15;;;16.60;99.90;;;;;;5018030;28;20610;-61
2022/05/07 12:46:23;;;;;;;6.28;4.32;;;16.60;99.90;;;;;;5049728;28;20224;-61
2022/05/07 12:48:50;;;;;;;7.25;5.05;;;16.60;99.90;;;;;;5044970;28;20964;-60
2022/05/07 12:51:21;;;;;;;8.43;5.10;;;16.60;99.90;;;;;;5035765;28;20223;-60
2022/05/07 12:53:49;;;;;;;13.32;4.75;;;16.50;99.90;;;;;;5078150;28;20240;-60
2022/05/07 12:56:16;;;;;;;9.65;4.72;;;16.40;99.90;;;;;;5052956;28;20203;-60
2022/05/07 12:58:43;;;;;;;5.68;4.03;;;16.20;99.90;;;;;;5048143;28;20211;-61
2022/05/07 13:01:12;;;;;;;4.00;3.45;;;16.20;99.90;;;;;;5069808;28;20700;-61
2022/05/07 13:03:39;;;;;;;5.15;3.83;;;16.20;99.90;;;;;;5048011;28;20207;-61
2022/05/07 13:06:07;;;;;;;3.92;3.05;;;16.30;99.90;;;;;;5058260;28;20226;-61
2022/05/07 13:08:36;;;;;;;3.65;2.90;;;16.30;99.90;;;;;;5028610;28;20200;-61
2022/05/07 13:11:03;;;;;;;4.30;2.92;;;16.30;99.90;;;;;;5041836;28;21036;-62
2022/05/07 13:13:30;;;;;;;3.08;2.40;;;16.20;99.90;;;;;;5048669;22;20935;-62
2022/05/07 13:15:57;;;;;;;5.35;2.78;;;16.10;99.90;;;;;;5002223;28;20298;-62
2022/05/07 13:18:25;;;;;;;3.65;3.00;;;16.00;99.90;;;;;;5004666;28;20253;-62
2022/05/07 13:20:52;;;;;;;5.10;3.33;;;16.00;99.90;;;;;;5017224;28;20312;-63
2022/05/07 13:23:19;;;;;;;4.28;3.40;;;15.90;99.90;;;;;;5000240;28;20213;-62
2022/05/07 13:25:48;;;;;;;6.55;3.63;;;15.80;99.90;;;;;;5009365;28;20229;-63
2022/05/07 13:28:15;;;;;;;5.15;4.22;;;15.90;99.90;;;;;;5031718;28;20202;-62